sensor_id;sensor_type;location;lat;lon;timestamp;noise_LAeq;noise_LA_min;noise_LA_max;noise_LA01;noise_LA95
72686;Laerm;61365;52.162;4.500;2023-01-26T00:01:18;47.27;40.29;58.07;;
72686;Laerm;61365;52.162;4.500;2023-01-26T00:03:45;47.33;40.50;57.71;;
72686;Laerm;61365;52.162;4.500;2023-01-26T00:06:17;47.39;41.10;62.13;;
72686;Laerm;61365;52.162;4.500;2023-01-26T00:08:52;47.35;41.09;58.99;;
72686;Laerm;61365;52.162;4.500;2023-01-26T00:11:23;47.53;40.46;57.96;;
72686;Laerm;61365;52.162;4.500;2023-01-26T00:13:53;47.40;39.48;57.92;;
72686;Laerm;61365;52.162;4.500;2023-01-26T00:16:20;47.47;41.97;64.71;;
72686;Laerm;61365;52.162;4.500;2023-01-26T00:18:46;47.39;39.12;57.51;;
72686;Laerm;61365;52.162;4.500;2023-01-26T00:21:16;47.45;40.54;58.32;;
72686;Laerm;61365;52.162;4.500;2023-01-26T00:23:43;47.36;41.33;58.75;;
72686;Laerm;61365;52.162;4.500;2023-01-26T00:26:15;47.44;39.92;57.85;;
72686;Laerm;61365;52.162;4.500;2023-01-26T00:28:42;47.43;40.51;58.90;;
72686;Laerm;61365;52.162;4.500;2023-01-26T00:31:26;47.48;41.20;58.42;;
72686;Laerm;61365;52.162;4.500;2023-01-26T00:33:54;47.41;40.87;59.51;;
72686;Laerm;61365;52.162;4.500;2023-01-26T00:36:21;47.34;41.17;57.63;;
72686;Laerm;61365;52.162;4.500;2023-01-26T00:38:48;47.28;41.14;59.02;;
72686;Laerm;61365;52.162;4.500;2023-01-26T00:41:14;47.42;41.07;58.11;;
72686;Laerm;61365;52.162;4.500;2023-01-26T00:44:03;47.44;39.44;57.98;;
72686;Laerm;61365;52.162;4.500;2023-01-26T00:46:30;47.40;41.72;62.47;;
72686;Laerm;61365;52.162;4.500;2023-01-26T00:48:56;47.44;40.07;59.01;;
72686;Laerm;61365;52.162;4.500;2023-01-26T00:51:25;47.39;41.08;59.27;;
72686;Laerm;61365;52.162;4.500;2023-01-26T00:53:51;47.42;40.45;59.11;;
72686;Laerm;61365;52.162;4.500;2023-01-26T00:56:18;47.36;39.88;60.96;;
72686;Laerm;61365;52.162;4.500;2023-01-26T00:58:45;46.81;36.21;58.35;;
72686;Laerm;61365;52.162;4.500;2023-01-26T01:01:11;47.09;39.61;58.19;;
72686;Laerm;61365;52.162;4.500;2023-01-26T01:03:38;47.40;40.95;58.04;;
72686;Laerm;61365;52.162;4.500;2023-01-26T01:06:04;47.45;40.75;57.85;;
72686;Laerm;61365;52.162;4.500;2023-01-26T01:08:30;47.37;41.32;58.75;;
72686;Laerm;61365;52.162;4.500;2023-01-26T01:11:08;47.34;40.77;58.15;;
72686;Laerm;61365;52.162;4.500;2023-01-26T01:13:36;47.48;40.73;58.56;;
72686;Laerm;61365;52.162;4.500;2023-01-26T01:16:12;47.42;40.70;58.29;;
72686;Laerm;61365;52.162;4.500;2023-01-26T01:18:39;47.48;41.59;60.24;;
72686;Laerm;61365;52.162;4.500;2023-01-26T01:21:08;47.30;40.73;57.67;;
72686;Laerm;61365;52.162;4.500;2023-01-26T01:23:35;47.31;41.16;58.65;;
72686;Laerm;61365;52.162;4.500;2023-01-26T01:26:03;47.45;41.29;58.12;;
72686;Laerm;61365;52.162;4.500;2023-01-26T01:28:31;47.45;41.13;59.70;;
72686;Laerm;61365;52.162;4.500;2023-01-26T01:30:58;47.31;40.53;58.16;;
72686;Laerm;61365;52.162;4.500;2023-01-26T01:33:25;47.43;40.98;60.29;;
72686;Laerm;61365;52.162;4.500;2023-01-26T01:35:59;47.40;39.38;58.60;;
72686;Laerm;61365;52.162;4.500;2023-01-26T01:38:26;47.33;40.37;57.68;;
72686;Laerm;61365;52.162;4.500;2023-01-26T01:40:54;47.40;40.03;59.04;;
72686;Laerm;61365;52.162;4.500;2023-01-26T01:43:22;47.49;40.64;58.29;;
72686;Laerm;61365;52.162;4.500;2023-01-26T01:45:50;47.32;41.23;58.42;;
72686;Laerm;61365;52.162;4.500;2023-01-26T01:48:59;47.32;41.30;57.90;;
72686;Laerm;61365;52.162;4.500;2023-01-26T01:51:40;47.46;40.39;62.91;;
72686;Laerm;61365;52.162;4.500;2023-01-26T01:54:14;47.42;41.21;58.59;;
72686;Laerm;61365;52.162;4.500;2023-01-26T01:56:48;47.45;41.64;59.69;;
72686;Laerm;61365;52.162;4.500;2023-01-26T01:59:16;47.32;36.25;59.06;;
72686;Laerm;61365;52.162;4.500;2023-01-26T02:01:49;46.83;36.71;62.97;;
72686;Laerm;61365;52.162;4.500;2023-01-26T02:04:18;46.77;38.17;62.47;;
72686;Laerm;61365;52.162;4.500;2023-01-26T02:06:52;46.73;38.04;57.91;;
72686;Laerm;61365;52.162;4.500;2023-01-26T02:09:29;46.70;38.16;60.07;;
72686;Laerm;61365;52.162;4.500;2023-01-26T02:12:23;46.83;37.83;59.88;;
72686;Laerm;61365;52.162;4.500;2023-01-26T02:14:52;46.92;37.86;57.80;;
72686;Laerm;61365;52.162;4.500;2023-01-26T02:17:19;46.63;38.43;56.62;;
72686;Laerm;61365;52.162;4.500;2023-01-26T02:20:21;46.92;36.42;59.10;;
72686;Laerm;61365;52.162;4.500;2023-01-26T02:26:15;47.42;41.36;61.68;;
72686;Laerm;61365;52.162;4.500;2023-01-26T02:28:45;47.51;40.38;58.04;;
72686;Laerm;61365;52.162;4.500;2023-01-26T02:31:13;47.44;40.19;57.71;;
72686;Laerm;61365;52.162;4.500;2023-01-26T02:33:41;47.40;41.56;58.50;;
72686;Laerm;61365;52.162;4.500;2023-01-26T02:36:17;47.26;40.69;58.29;;
72686;Laerm;61365;52.162;4.500;2023-01-26T02:41:19;47.34;40.18;59.96;;
72686;Laerm;61365;52.162;4.500;2023-01-26T02:44:08;47.39;40.29;59.06;;
72686;Laerm;61365;52.162;4.500;2023-01-26T02:46:35;47.32;41.66;57.96;;
72686;Laerm;61365;52.162;4.500;2023-01-26T02:49:01;47.43;40.93;58.73;;
72686;Laerm;61365;52.162;4.500;2023-01-26T02:51:46;47.30;40.39;59.68;;
72686;Laerm;61365;52.162;4.500;2023-01-26T02:54:13;47.35;40.58;58.43;;
72686;Laerm;61365;52.162;4.500;2023-01-26T02:57:00;47.44;40.88;59.01;;
72686;Laerm;61365;52.162;4.500;2023-01-26T02:59:26;47.33;40.91;58.43;;
72686;Laerm;61365;52.162;4.500;2023-01-26T03:01:56;47.24;41.55;58.19;;
72686;Laerm;61365;52.162;4.500;2023-01-26T03:04:23;47.37;40.59;58.77;;
72686;Laerm;61365;52.162;4.500;2023-01-26T03:06:50;47.53;41.43;58.35;;
72686;Laerm;61365;52.162;4.500;2023-01-26T03:09:16;47.23;41.22;58.03;;
72686;Laerm;61365;52.162;4.500;2023-01-26T03:11:42;47.35;41.49;61.20;;
72686;Laerm;61365;52.162;4.500;2023-01-26T03:14:10;47.31;41.52;58.32;;
72686;Laerm;61365;52.162;4.500;2023-01-26T03:16:38;47.22;40.81;58.44;;
72686;Laerm;61365;52.162;4.500;2023-01-26T03:19:10;47.35;41.35;58.50;;
72686;Laerm;61365;52.162;4.500;2023-01-26T03:21:57;47.33;40.85;58.36;;
72686;Laerm;61365;52.162;4.500;2023-01-26T03:24:42;47.40;41.45;59.76;;
72686;Laerm;61365;52.162;4.500;2023-01-26T03:27:29;47.46;40.50;59.21;;
72686;Laerm;61365;52.162;4.500;2023-01-26T03:29:58;47.24;40.75;57.99;;
72686;Laerm;61365;52.162;4.500;2023-01-26T03:32:25;47.41;40.52;58.67;;
72686;Laerm;61365;52.162;4.500;2023-01-26T03:34:51;47.34;39.26;58.13;;
72686;Laerm;61365;52.162;4.500;2023-01-26T03:37:18;47.19;41.75;58.25;;
72686;Laerm;61365;52.162;4.500;2023-01-26T03:39:49;47.26;40.94;58.47;;
72686;Laerm;61365;52.162;4.500;2023-01-26T03:42:35;47.33;40.94;58.56;;
72686;Laerm;61365;52.162;4.500;2023-01-26T03:45:20;47.40;41.61;57.93;;
72686;Laerm;61365;52.162;4.500;2023-01-26T03:48:11;47.41;41.03;58.12;;
72686;Laerm;61365;52.162;4.500;2023-01-26T03:50:56;47.35;41.18;58.25;;
72686;Laerm;61365;52.162;4.500;2023-01-26T03:53:42;47.34;41.78;57.99;;
72686;Laerm;61365;52.162;4.500;2023-01-26T03:56:27;47.55;41.35;59.13;;
72686;Laerm;61365;52.162;4.500;2023-01-26T03:59:03;47.43;40.50;58.01;;
72686;Laerm;61365;52.162;4.500;2023-01-26T04:01:44;47.49;41.24;60.74;;
72686;Laerm;61365;52.162;4.500;2023-01-26T04:04:29;47.41;41.43;58.31;;
72686;Laerm;61365;52.162;4.500;2023-01-26T04:07:14;47.48;41.29;58.55;;
72686;Laerm;61365;52.162;4.500;2023-01-26T04:09:59;47.39;41.31;58.08;;
72686;Laerm;61365;52.162;4.500;2023-01-26T04:12:25;47.36;40.70;58.09;;
72686;Laerm;61365;52.162;4.500;2023-01-26T04:14:52;47.38;40.84;58.67;;
72686;Laerm;61365;52.162;4.500;2023-01-26T04:17:36;47.52;41.09;58.69;;
72686;Laerm;61365;52.162;4.500;2023-01-26T04:20:21;47.44;41.24;57.97;;
72686;Laerm;61365;52.162;4.500;2023-01-26T04:23:06;47.34;40.88;58.78;;
72686;Laerm;61365;52.162;4.500;2023-01-26T04:25:32;47.30;41.61;58.21;;
72686;Laerm;61365;52.162;4.500;2023-01-26T04:27:58;47.57;41.31;59.91;;
72686;Laerm;61365;52.162;4.500;2023-01-26T04:30:25;47.42;41.44;58.84;;
72686;Laerm;61365;52.162;4.500;2023-01-26T04:32:51;47.11;35.29;57.36;;
72686;Laerm;61365;52.162;4.500;2023-01-26T04:35:17;47.29;35.99;59.07;;
72686;Laerm;61365;52.162;4.500;2023-01-26T04:37:44;47.59;41.34;58.44;;
72686;Laerm;61365;52.162;4.500;2023-01-26T04:40:10;47.60;41.10;58.81;;
72686;Laerm;61365;52.162;4.500;2023-01-26T04:42:37;47.47;40.97;57.91;;
72686;Laerm;61365;52.162;4.500;2023-01-26T04:45:04;47.47;41.52;57.76;;
72686;Laerm;61365;52.162;4.500;2023-01-26T04:47:30;47.40;41.35;57.65;;
72686;Laerm;61365;52.162;4.500;2023-01-26T04:49:57;47.58;40.57;58.77;;
72686;Laerm;61365;52.162;4.500;2023-01-26T04:52:23;47.37;41.33;58.61;;
72686;Laerm;61365;52.162;4.500;2023-01-26T04:54:49;47.65;41.07;59.67;;
72686;Laerm;61365;52.162;4.500;2023-01-26T04:57:16;47.55;38.78;57.56;;
72686;Laerm;61365;52.162;4.500;2023-01-26T04:59:45;47.46;41.63;59.58;;
72686;Laerm;61365;52.162;4.500;2023-01-26T05:02:11;47.56;41.48;58.13;;
72686;Laerm;61365;52.162;4.500;2023-01-26T05:04:38;47.45;41.03;58.63;;
72686;Laerm;61365;52.162;4.500;2023-01-26T05:07:04;47.65;41.42;58.26;;
72686;Laerm;61365;52.162;4.500;2023-01-26T05:09:31;47.51;41.53;59.49;;
72686;Laerm;61365;52.162;4.500;2023-01-26T05:11:57;47.38;41.67;58.00;;
72686;Laerm;61365;52.162;4.500;2023-01-26T05:14:43;47.46;41.72;61.29;;
72686;Laerm;61365;52.162;4.500;2023-01-26T05:17:09;47.44;42.21;57.49;;
72686;Laerm;61365;52.162;4.500;2023-01-26T05:19:36;47.50;37.93;57.94;;
72686;Laerm;61365;52.162;4.500;2023-01-26T05:22:02;46.81;36.77;58.90;;
72686;Laerm;61365;52.162;4.500;2023-01-26T05:24:28;46.93;36.97;57.88;;
72686;Laerm;61365;52.162;4.500;2023-01-26T05:26:55;46.96;35.62;57.88;;
72686;Laerm;61365;52.162;4.500;2023-01-26T05:29:41;47.14;36.03;59.30;;
72686;Laerm;61365;52.162;4.500;2023-01-26T05:32:07;47.45;42.46;57.48;;
72686;Laerm;61365;52.162;4.500;2023-01-26T05:34:33;47.50;41.21;58.84;;
72686;Laerm;61365;52.162;4.500;2023-01-26T05:37:00;47.52;41.30;58.09;;
72686;Laerm;61365;52.162;4.500;2023-01-26T05:39:26;47.37;41.86;57.73;;
72686;Laerm;61365;52.162;4.500;2023-01-26T05:41:53;47.54;41.55;58.52;;
72686;Laerm;61365;52.162;4.500;2023-01-26T05:44:23;47.57;41.70;57.60;;
72686;Laerm;61365;52.162;4.500;2023-01-26T05:46:52;47.57;42.03;59.10;;
72686;Laerm;61365;52.162;4.500;2023-01-26T05:49:18;47.38;42.00;56.89;;
72686;Laerm;61365;52.162;4.500;2023-01-26T05:51:45;47.47;41.73;58.86;;
72686;Laerm;61365;52.162;4.500;2023-01-26T05:54:11;47.42;41.87;58.28;;
72686;Laerm;61365;52.162;4.500;2023-01-26T05:56:37;47.55;42.15;58.12;;
72686;Laerm;61365;52.162;4.500;2023-01-26T05:59:03;47.43;41.97;58.43;;
72686;Laerm;61365;52.162;4.500;2023-01-26T06:01:30;47.47;41.83;57.90;;
72686;Laerm;61365;52.162;4.500;2023-01-26T06:03:56;47.50;42.28;58.41;;
72686;Laerm;61365;52.162;4.500;2023-01-26T06:06:22;47.52;41.67;60.93;;
72686;Laerm;61365;52.162;4.500;2023-01-26T06:08:49;47.50;42.05;57.98;;
72686;Laerm;61365;52.162;4.500;2023-01-26T06:11:15;47.39;41.45;56.74;;
72686;Laerm;61365;52.162;4.500;2023-01-26T06:13:41;47.56;42.30;58.08;;
72686;Laerm;61365;52.162;4.500;2023-01-26T06:16:08;47.50;41.98;57.59;;
72686;Laerm;61365;52.162;4.500;2023-01-26T06:18:34;47.43;42.55;57.20;;
72686;Laerm;61365;52.162;4.500;2023-01-26T06:21:00;47.48;42.15;59.11;;
72686;Laerm;61365;52.162;4.500;2023-01-26T06:23:27;47.31;42.10;57.34;;
72686;Laerm;61365;52.162;4.500;2023-01-26T06:25:58;47.36;41.59;57.46;;
72686;Laerm;61365;52.162;4.500;2023-01-26T06:28:26;47.50;42.16;57.65;;
72686;Laerm;61365;52.162;4.500;2023-01-26T06:30:59;47.48;41.37;59.75;;
72686;Laerm;61365;52.162;4.500;2023-01-26T06:33:25;47.50;42.30;60.31;;
72686;Laerm;61365;52.162;4.500;2023-01-26T06:35:52;47.48;41.86;57.93;;
72686;Laerm;61365;52.162;4.500;2023-01-26T06:38:21;47.45;41.26;58.08;;
72686;Laerm;61365;52.162;4.500;2023-01-26T06:40:47;47.47;42.02;58.50;;
72686;Laerm;61365;52.162;4.500;2023-01-26T06:43:13;47.40;42.19;62.96;;
72686;Laerm;61365;52.162;4.500;2023-01-26T06:45:40;47.44;42.06;57.75;;
72686;Laerm;61365;52.162;4.500;2023-01-26T06:48:07;47.38;41.45;58.26;;
72686;Laerm;61365;52.162;4.500;2023-01-26T06:50:34;47.45;42.12;57.01;;
72686;Laerm;61365;52.162;4.500;2023-01-26T06:55:52;47.36;42.01;57.35;;
72686;Laerm;61365;52.162;4.500;2023-01-26T06:58:18;47.29;41.57;57.55;;
72686;Laerm;61365;52.162;4.500;2023-01-26T07:00:48;47.43;41.64;57.68;;
72686;Laerm;61365;52.162;4.500;2023-01-26T07:03:15;47.47;42.07;58.51;;
72686;Laerm;61365;52.162;4.500;2023-01-26T07:05:41;47.44;42.01;59.42;;
72686;Laerm;61365;52.162;4.500;2023-01-26T07:08:08;47.36;42.11;57.85;;
72686;Laerm;61365;52.162;4.500;2023-01-26T07:10:35;47.48;41.71;59.02;;
72686;Laerm;61365;52.162;4.500;2023-01-26T07:13:03;47.56;41.15;62.45;;
72686;Laerm;61365;52.162;4.500;2023-01-26T07:15:30;47.02;36.33;57.80;;
72686;Laerm;61365;52.162;4.500;2023-01-26T07:17:57;47.20;36.12;56.91;;
72686;Laerm;61365;52.162;4.500;2023-01-26T07:20:24;47.32;42.15;57.24;;
72686;Laerm;61365;52.162;4.500;2023-01-26T07:22:51;47.53;41.25;58.52;;
72686;Laerm;61365;52.162;4.500;2023-01-26T07:25:18;47.52;41.18;58.34;;
72686;Laerm;61365;52.162;4.500;2023-01-26T07:27:44;47.48;42.09;58.65;;
72686;Laerm;61365;52.162;4.500;2023-01-26T07:30:12;47.50;42.25;58.03;;
72686;Laerm;61365;52.162;4.500;2023-01-26T07:32:39;47.49;41.79;59.30;;
72686;Laerm;61365;52.162;4.500;2023-01-26T07:35:06;46.97;40.39;57.97;;
72686;Laerm;61365;52.162;4.500;2023-01-26T07:37:33;47.59;41.20;58.14;;
72686;Laerm;61365;52.162;4.500;2023-01-26T07:39:59;47.62;41.48;58.99;;
72686;Laerm;61365;52.162;4.500;2023-01-26T07:42:26;47.45;41.97;57.74;;
72686;Laerm;61365;52.162;4.500;2023-01-26T07:44:52;47.42;41.39;57.49;;
72686;Laerm;61365;52.162;4.500;2023-01-26T07:47:18;47.53;42.05;58.13;;
72686;Laerm;61365;52.162;4.500;2023-01-26T07:49:45;47.46;41.93;57.56;;
72686;Laerm;61365;52.162;4.500;2023-01-26T07:52:12;47.58;41.81;58.75;;
72686;Laerm;61365;52.162;4.500;2023-01-26T07:54:38;47.50;41.43;57.87;;
72686;Laerm;61365;52.162;4.500;2023-01-26T07:57:04;47.42;41.77;58.14;;
72686;Laerm;61365;52.162;4.500;2023-01-26T07:59:34;47.40;41.71;57.28;;
72686;Laerm;61365;52.162;4.500;2023-01-26T08:02:00;47.56;42.04;58.79;;
72686;Laerm;61365;52.162;4.500;2023-01-26T08:04:26;47.43;41.99;58.61;;
72686;Laerm;61365;52.162;4.500;2023-01-26T08:06:53;47.60;41.06;59.11;;
72686;Laerm;61365;52.162;4.500;2023-01-26T08:09:19;47.54;41.51;58.94;;
72686;Laerm;61365;52.162;4.500;2023-01-26T08:11:46;47.45;42.07;57.83;;
72686;Laerm;61365;52.162;4.500;2023-01-26T08:14:15;47.43;42.11;56.63;;
72686;Laerm;61365;52.162;4.500;2023-01-26T08:16:41;47.52;41.96;58.52;;
72686;Laerm;61365;52.162;4.500;2023-01-26T08:19:07;47.52;41.71;59.42;;
72686;Laerm;61365;52.162;4.500;2023-01-26T08:21:34;47.43;40.76;58.10;;
72686;Laerm;61365;52.162;4.500;2023-01-26T08:24:00;47.50;42.34;57.48;;
72686;Laerm;61365;52.162;4.500;2023-01-26T08:26:28;47.56;41.84;57.76;;
72686;Laerm;61365;52.162;4.500;2023-01-26T08:28:54;47.29;42.45;57.07;;
72686;Laerm;61365;52.162;4.500;2023-01-26T08:31:21;47.29;41.08;56.91;;
72686;Laerm;61365;52.162;4.500;2023-01-26T08:33:49;47.39;41.53;58.79;;
72686;Laerm;61365;52.162;4.500;2023-01-26T08:36:18;47.39;42.02;58.75;;
72686;Laerm;61365;52.162;4.500;2023-01-26T08:38:44;47.47;41.28;57.66;;
72686;Laerm;61365;52.162;4.500;2023-01-26T08:41:11;47.36;41.99;58.23;;
72686;Laerm;61365;52.162;4.500;2023-01-26T08:43:38;47.46;41.99;59.24;;
72686;Laerm;61365;52.162;4.500;2023-01-26T08:46:05;47.30;36.65;58.13;;
72686;Laerm;61365;52.162;4.500;2023-01-26T08:48:31;47.28;36.53;57.72;;
72686;Laerm;61365;52.162;4.500;2023-01-26T08:51:01;47.44;41.28;58.01;;
72686;Laerm;61365;52.162;4.500;2023-01-26T08:53:31;47.28;37.37;58.04;;
72686;Laerm;61365;52.162;4.500;2023-01-26T08:56:01;46.89;36.53;56.92;;
72686;Laerm;61365;52.162;4.500;2023-01-26T08:58:28;46.73;38.22;57.51;;
72686;Laerm;61365;52.162;4.500;2023-01-26T09:00:54;47.16;36.26;58.20;;
72686;Laerm;61365;52.162;4.500;2023-01-26T09:03:21;47.45;41.35;57.60;;
72686;Laerm;61365;52.162;4.500;2023-01-26T09:05:47;47.52;41.80;60.37;;
72686;Laerm;61365;52.162;4.500;2023-01-26T09:08:13;47.53;41.48;63.41;;
72686;Laerm;61365;52.162;4.500;2023-01-26T09:10:40;47.44;41.91;58.24;;
72686;Laerm;61365;52.162;4.500;2023-01-26T09:13:08;47.44;42.05;57.73;;
72686;Laerm;61365;52.162;4.500;2023-01-26T09:15:37;47.42;41.43;57.15;;
72686;Laerm;61365;52.162;4.500;2023-01-26T09:18:03;47.67;42.04;58.40;;
72686;Laerm;61365;52.162;4.500;2023-01-26T09:20:30;47.56;41.94;59.29;;
72686;Laerm;61365;52.162;4.500;2023-01-26T09:22:56;47.57;41.89;60.18;;
72686;Laerm;61365;52.162;4.500;2023-01-26T09:25:22;47.52;41.39;58.83;;
72686;Laerm;61365;52.162;4.500;2023-01-26T09:27:49;47.71;41.35;58.71;;
72686;Laerm;61365;52.162;4.500;2023-01-26T09:30:15;47.60;41.66;58.33;;
72686;Laerm;61365;52.162;4.500;2023-01-26T09:32:42;47.50;41.85;57.49;;
72686;Laerm;61365;52.162;4.500;2023-01-26T09:35:08;47.58;41.84;57.70;;
72686;Laerm;61365;52.162;4.500;2023-01-26T09:37:38;47.62;41.03;57.68;;
72686;Laerm;61365;52.162;4.500;2023-01-26T09:40:05;47.62;42.06;58.00;;
72686;Laerm;61365;52.162;4.500;2023-01-26T09:42:53;47.67;41.77;57.92;;
72686;Laerm;61365;52.162;4.500;2023-01-26T09:45:40;47.63;41.62;58.43;;
72686;Laerm;61365;52.162;4.500;2023-01-26T09:48:21;47.62;41.37;57.29;;
72686;Laerm;61365;52.162;4.500;2023-01-26T09:51:00;47.67;41.51;59.12;;
72686;Laerm;61365;52.162;4.500;2023-01-26T09:53:52;47.62;41.75;57.99;;
72686;Laerm;61365;52.162;4.500;2023-01-26T09:56:24;47.58;41.56;57.17;;
72686;Laerm;61365;52.162;4.500;2023-01-26T10:05:49;47.67;41.70;57.46;;
72686;Laerm;61365;52.162;4.500;2023-01-26T10:08:19;47.62;40.95;59.07;;
72686;Laerm;61365;52.162;4.500;2023-01-26T10:11:06;47.68;41.07;60.48;;
72686;Laerm;61365;52.162;4.500;2023-01-26T10:13:39;47.70;40.92;57.91;;
72686;Laerm;61365;52.162;4.500;2023-01-26T10:16:11;47.65;41.50;57.31;;
72686;Laerm;61365;52.162;4.500;2023-01-26T10:18:52;47.57;40.74;57.42;;
72686;Laerm;61365;52.162;4.500;2023-01-26T10:21:24;47.67;41.46;57.76;;
72686;Laerm;61365;52.162;4.500;2023-01-26T10:23:54;47.57;41.38;57.13;;
72686;Laerm;61365;52.162;4.500;2023-01-26T10:26:23;47.69;40.81;57.70;;
72686;Laerm;61365;52.162;4.500;2023-01-26T10:28:51;47.57;40.71;57.17;;
72686;Laerm;61365;52.162;4.500;2023-01-26T10:31:22;47.65;38.19;57.91;;
72686;Laerm;61365;52.162;4.500;2023-01-26T10:33:53;47.48;41.57;57.34;;
72686;Laerm;61365;52.162;4.500;2023-01-26T10:36:20;47.49;41.16;58.12;;
72686;Laerm;61365;52.162;4.500;2023-01-26T10:38:48;47.49;41.22;57.34;;
72686;Laerm;61365;52.162;4.500;2023-01-26T10:49:14;47.50;41.13;58.13;;
72686;Laerm;61365;52.162;4.500;2023-01-26T10:52:03;47.50;40.46;57.16;;
72686;Laerm;61365;52.162;4.500;2023-01-26T10:54:30;47.49;41.70;56.80;;
72686;Laerm;61365;52.162;4.500;2023-01-26T10:57:04;47.52;41.63;58.24;;
72686;Laerm;61365;52.162;4.500;2023-01-26T10:59:37;47.58;40.83;56.77;;
72686;Laerm;61365;52.162;4.500;2023-01-26T11:04:38;47.63;41.17;57.55;;
72686;Laerm;61365;52.162;4.500;2023-01-26T11:07:31;47.58;41.02;57.71;;
72686;Laerm;61365;52.162;4.500;2023-01-26T11:13:20;47.41;40.51;57.57;;
72686;Laerm;61365;52.162;4.500;2023-01-26T11:15:50;47.40;40.80;57.07;;
72686;Laerm;61365;52.162;4.500;2023-01-26T11:21:14;47.45;40.69;58.30;;
72686;Laerm;61365;52.162;4.500;2023-01-26T11:24:23;47.44;36.21;57.03;;
72686;Laerm;61365;52.162;4.500;2023-01-26T11:30:24;47.41;36.74;59.83;;
72686;Laerm;61365;52.162;4.500;2023-01-26T11:38:39;47.56;41.02;57.76;;
72686;Laerm;61365;52.162;4.500;2023-01-26T11:42:01;47.57;40.71;57.28;;
72686;Laerm;61365;52.162;4.500;2023-01-26T11:45:07;47.50;36.79;58.09;;
72686;Laerm;61365;52.162;4.500;2023-01-26T11:50:34;47.64;41.59;60.85;;
72686;Laerm;61365;52.162;4.500;2023-01-26T11:56:11;47.43;40.19;57.25;;
72686;Laerm;61365;52.162;4.500;2023-01-26T11:58:52;47.46;36.35;57.36;;
72686;Laerm;61365;52.162;4.500;2023-01-26T12:01:38;47.39;41.12;57.53;;
72686;Laerm;61365;52.162;4.500;2023-01-26T12:04:17;47.55;41.12;58.02;;
72686;Laerm;61365;52.162;4.500;2023-01-26T12:06:49;47.43;40.26;57.38;;
72686;Laerm;61365;52.162;4.500;2023-01-26T12:09:40;47.50;41.44;56.99;;
72686;Laerm;61365;52.162;4.500;2023-01-26T12:12:39;47.51;37.46;58.24;;
72686;Laerm;61365;52.162;4.500;2023-01-26T12:15:20;47.42;40.48;61.19;;
72686;Laerm;61365;52.162;4.500;2023-01-26T12:18:25;47.49;40.42;58.02;;
72686;Laerm;61365;52.162;4.500;2023-01-26T12:21:09;47.51;40.69;57.54;;
72686;Laerm;61365;52.162;4.500;2023-01-26T12:24:00;47.55;41.54;57.95;;
72686;Laerm;61365;52.162;4.500;2023-01-26T12:26:44;47.60;41.04;57.56;;
72686;Laerm;61365;52.162;4.500;2023-01-26T12:29:21;47.46;41.63;58.32;;
72686;Laerm;61365;52.162;4.500;2023-01-26T12:32:04;47.61;41.36;57.53;;
72686;Laerm;61365;52.162;4.500;2023-01-26T12:34:33;47.55;41.86;57.21;;
72686;Laerm;61365;52.162;4.500;2023-01-26T12:40:43;47.53;41.60;58.00;;
72686;Laerm;61365;52.162;4.500;2023-01-26T12:43:34;47.37;36.26;56.83;;
72686;Laerm;61365;52.162;4.500;2023-01-26T12:46:05;47.42;35.68;57.96;;
72686;Laerm;61365;52.162;4.500;2023-01-26T12:48:44;47.59;39.89;59.11;;
72686;Laerm;61365;52.162;4.500;2023-01-26T12:51:31;47.49;41.69;57.71;;
72686;Laerm;61365;52.162;4.500;2023-01-26T12:54:11;47.42;40.15;57.22;;
72686;Laerm;61365;52.162;4.500;2023-01-26T12:56:51;47.63;41.34;58.39;;
72686;Laerm;61365;52.162;4.500;2023-01-26T12:59:34;47.54;41.01;57.68;;
72686;Laerm;61365;52.162;4.500;2023-01-26T13:02:26;47.47;35.86;59.24;;
72686;Laerm;61365;52.162;4.500;2023-01-26T13:04:56;47.23;35.97;56.76;;
72686;Laerm;61365;52.162;4.500;2023-01-26T13:15:45;47.39;41.33;57.77;;
72686;Laerm;61365;52.162;4.500;2023-01-26T13:18:16;47.49;40.72;57.16;;
72686;Laerm;61365;52.162;4.500;2023-01-26T13:20:47;47.48;41.29;56.89;;
72686;Laerm;61365;52.162;4.500;2023-01-26T13:26:18;47.56;40.42;58.10;;
72686;Laerm;61365;52.162;4.500;2023-01-26T13:28:46;47.63;40.56;58.94;;
72686;Laerm;61365;52.162;4.500;2023-01-26T13:31:29;47.48;41.28;58.33;;
72686;Laerm;61365;52.162;4.500;2023-01-26T13:34:01;47.53;40.53;58.21;;
72686;Laerm;61365;52.162;4.500;2023-01-26T13:36:35;47.51;40.43;57.70;;
72686;Laerm;61365;52.162;4.500;2023-01-26T13:39:28;47.51;40.54;57.65;;
72686;Laerm;61365;52.162;4.500;2023-01-26T13:41:56;47.40;40.67;56.59;;
72686;Laerm;61365;52.162;4.500;2023-01-26T13:44:43;47.49;40.77;57.51;;
72686;Laerm;61365;52.162;4.500;2023-01-26T13:47:19;47.47;41.73;58.97;;
72686;Laerm;61365;52.162;4.500;2023-01-26T13:49:49;47.54;40.77;57.10;;
72686;Laerm;61365;52.162;4.500;2023-01-26T13:52:25;47.46;41.18;57.11;;
72686;Laerm;61365;52.162;4.500;2023-01-26T13:54:54;47.43;40.39;57.68;;
72686;Laerm;61365;52.162;4.500;2023-01-26T13:57:28;47.51;41.35;59.97;;
72686;Laerm;61365;52.162;4.500;2023-01-26T13:59:58;47.52;41.09;57.09;;
72686;Laerm;61365;52.162;4.500;2023-01-26T14:02:29;47.56;41.75;58.02;;
72686;Laerm;61365;52.162;4.500;2023-01-26T14:05:00;47.41;36.22;57.88;;
72686;Laerm;61365;52.162;4.500;2023-01-26T14:07:37;47.53;41.23;58.67;;
72686;Laerm;61365;52.162;4.500;2023-01-26T14:10:05;47.67;41.71;58.66;;
72686;Laerm;61365;52.162;4.500;2023-01-26T14:12:42;47.47;41.65;56.72;;
72686;Laerm;61365;52.162;4.500;2023-01-26T14:15:27;47.62;41.83;60.92;;
72686;Laerm;61365;52.162;4.500;2023-01-26T14:18:04;47.57;41.55;58.29;;
72686;Laerm;61365;52.162;4.500;2023-01-26T14:20:37;47.59;40.35;58.17;;
72686;Laerm;61365;52.162;4.500;2023-01-26T14:23:13;47.60;40.92;58.73;;
72686;Laerm;61365;52.162;4.500;2023-01-26T14:26:02;47.64;41.00;62.45;;
72686;Laerm;61365;52.162;4.500;2023-01-26T14:28:36;47.58;41.14;57.87;;
72686;Laerm;61365;52.162;4.500;2023-01-26T14:31:18;47.65;41.24;59.09;;
72686;Laerm;61365;52.162;4.500;2023-01-26T14:33:47;47.71;40.98;57.84;;
72686;Laerm;61365;52.162;4.500;2023-01-26T14:36:19;47.58;41.32;57.66;;
72686;Laerm;61365;52.162;4.500;2023-01-26T14:38:49;47.56;40.76;62.39;;
72686;Laerm;61365;52.162;4.500;2023-01-26T14:41:27;47.48;40.69;57.53;;
72686;Laerm;61365;52.162;4.500;2023-01-26T14:43:57;47.65;40.59;58.29;;
72686;Laerm;61365;52.162;4.500;2023-01-26T14:46:55;47.48;40.31;58.14;;
72686;Laerm;61365;52.162;4.500;2023-01-26T14:50:06;47.54;41.17;57.64;;
72686;Laerm;61365;52.162;4.500;2023-01-26T14:52:42;47.55;40.60;57.23;;
72686;Laerm;61365;52.162;4.500;2023-01-26T14:55:22;47.49;40.76;58.22;;
72686;Laerm;61365;52.162;4.500;2023-01-26T14:57:50;47.44;36.80;59.69;;
72686;Laerm;61365;52.162;4.500;2023-01-26T15:00:26;47.21;35.65;58.22;;
72686;Laerm;61365;52.162;4.500;2023-01-26T15:02:56;47.24;35.60;57.44;;
72686;Laerm;61365;52.162;4.500;2023-01-26T15:05:38;46.81;36.73;58.28;;
72686;Laerm;61365;52.162;4.500;2023-01-26T15:08:20;46.97;35.75;57.49;;
72686;Laerm;61365;52.162;4.500;2023-01-26T15:11:07;47.25;35.93;57.07;;
72686;Laerm;61365;52.162;4.500;2023-01-26T15:13:54;47.43;41.11;57.40;;
72686;Laerm;61365;52.162;4.500;2023-01-26T15:16:24;47.46;40.63;57.63;;